CheckWX is a tool to help pilots better visualize weather data.  It is not intended as a substitute for an official pre-flight weather briefing.

06:58:45 UTC

KPAE TAF
Snohomish County (Paine Field) Airport
Everett, Washington, USA
KPAE 170539Z 1706/1806 02006KT P6SM SCT200 FM171100 02004KT P6SM OVC050 FM171300 03004KT P6SM OVC020 FM171900 28005KT P6SM OVC050 FM172100 30006KT P6SM SCT020 SCT050 BKN200 FM180400 36008KT P6SM BKN050

Jun-17@
06:00 UTC

Jun-17 @ 06:00 UTC

Jun-17@
11:00 UTC

Jun-17 @ 11:00 UTC

KPAE 170539Z 1706/1806 02006KT P6SM SCT200
Wind
  • 020° at 6 KTS
Cloud Levels
  • Scattered at 20,000' AGL

Jun-17@
11:00 UTC

Jun-17 @ 11:00 UTC

Jun-17@
13:00 UTC

Jun-17 @ 13:00 UTC

FM171100 02004KT P6SM OVC050

From

From Standard forecast or significant change

Wind
  • 020° at 4 KTS
Cloud Levels
  • Overcast at 5,000' AGL

Jun-17@
13:00 UTC

Jun-17 @ 13:00 UTC

Jun-17@
19:00 UTC

Jun-17 @ 19:00 UTC

FM171300 03004KT P6SM OVC020

From

From Standard forecast or significant change

Wind
  • 030° at 4 KTS
Cloud Levels
  • Overcast at 2,000' AGL

Jun-17@
19:00 UTC

Jun-17 @ 19:00 UTC

Jun-17@
21:00 UTC

Jun-17 @ 21:00 UTC

FM171900 28005KT P6SM OVC050

From

From Standard forecast or significant change

Wind
  • 280° at 5 KTS
Cloud Levels
  • Overcast at 5,000' AGL

Jun-17@
21:00 UTC

Jun-17 @ 21:00 UTC

Jun-18@
04:00 UTC

Jun-18 @ 04:00 UTC

FM172100 30006KT P6SM SCT020 SCT050 BKN200

From

From Standard forecast or significant change

Wind
  • 300° at 6 KTS
Cloud Levels
  • Scattered at 2,000' AGL
  • Scattered at 5,000' AGL
  • Broken at 20,000' AGL

Jun-18@
04:00 UTC

Jun-18 @ 04:00 UTC

Jun-18@
06:00 UTC

Jun-18 @ 06:00 UTC

FM180400 36008KT P6SM BKN050

From

From Standard forecast or significant change

Wind
  • 360° at 8 KTS
Cloud Levels
  • Broken at 5,000' AGL